createdAt,value
2018-11-26T00:01:39.273Z,27.43
2018-11-26T00:04:07.464Z,26.27
2018-11-26T00:06:35.643Z,26.40
2018-11-26T00:09:03.932Z,25.07
2018-11-26T00:11:34.248Z,27.93
2018-11-26T00:14:02.439Z,26.87
2018-11-26T00:16:30.633Z,26.43
2018-11-26T00:18:58.852Z,27.37
2018-11-26T00:21:27.052Z,25.50
2018-11-26T00:23:55.223Z,24.73
2018-11-26T00:26:23.436Z,26.83
2018-11-26T00:28:51.661Z,25.10
2018-11-26T00:31:20.409Z,27.40
2018-11-26T00:33:48.640Z,29.93
2018-11-26T00:36:16.823Z,28.60
2018-11-26T00:38:45.025Z,29.43
2018-11-26T00:41:13.204Z,27.13
2018-11-26T00:43:41.404Z,26.73
2018-11-26T00:46:09.611Z,27.03
2018-11-26T00:48:37.801Z,26.40
2018-11-26T00:51:06.650Z,27.70
2018-11-26T00:53:34.888Z,26.90
2018-11-26T00:56:03.067Z,26.40
2018-11-26T00:58:31.276Z,27.37
2018-11-26T01:00:59.470Z,27.47
2018-11-26T01:03:27.695Z,27.73
2018-11-26T01:05:55.928Z,27.50
2018-11-26T01:08:24.132Z,27.87
2018-11-26T01:10:52.355Z,28.30
2018-11-26T01:13:20.561Z,28.20
2018-11-26T01:15:48.774Z,26.43
2018-11-26T01:18:16.972Z,26.77
2018-11-26T01:20:45.176Z,28.07
2018-11-26T01:23:13.379Z,27.50
2018-11-26T01:25:41.557Z,27.37
2018-11-26T01:28:09.733Z,28.00
2018-11-26T01:30:37.937Z,28.87
2018-11-26T01:33:06.284Z,29.53
2018-11-26T01:35:34.513Z,29.73
2018-11-26T01:38:02.689Z,26.60
2018-11-26T01:40:36.134Z,27.63
2018-11-26T01:43:04.338Z,27.20
2018-11-26T01:45:32.555Z,25.27
2018-11-26T01:48:00.738Z,26.73
2018-11-26T01:50:28.903Z,27.40
2018-11-26T01:52:57.076Z,29.37
2018-11-26T01:55:25.263Z,28.97
2018-11-26T01:57:53.473Z,28.47
2018-11-26T02:00:24.014Z,28.03
2018-11-26T02:02:52.242Z,27.53
2018-11-26T02:05:20.437Z,30.13
2018-11-26T02:07:48.647Z,27.07
2018-11-26T02:10:18.990Z,28.00
2018-11-26T02:12:47.220Z,27.07
2018-11-26T02:15:26.651Z,28.00
2018-11-26T02:17:54.884Z,27.73
2018-11-26T02:20:23.076Z,27.40
2018-11-26T02:22:51.298Z,28.20
2018-11-26T02:25:19.518Z,28.00
2018-11-26T02:27:47.701Z,27.97
2018-11-26T02:30:15.903Z,28.43
2018-11-26T02:32:44.101Z,28.63
2018-11-26T02:35:12.319Z,26.53
2018-11-26T02:37:40.549Z,27.90
2018-11-26T02:40:10.683Z,28.10
2018-11-26T02:42:38.885Z,28.57
2018-11-26T02:45:07.128Z,28.20
2018-11-26T02:47:35.329Z,27.83
2018-11-26T02:50:03.564Z,27.40
2018-11-26T02:52:31.784Z,28.17
2018-11-26T02:54:59.998Z,26.80
2018-11-26T02:57:28.220Z,27.50
2018-11-26T02:59:56.414Z,28.23
2018-11-26T03:02:24.591Z,26.00
2018-11-26T03:04:52.764Z,26.87
2018-11-26T03:07:20.953Z,25.47
2018-11-26T03:09:49.140Z,27.07
2018-11-26T03:12:17.304Z,26.30
2018-11-26T03:14:45.500Z,26.77
2018-11-26T03:17:13.702Z,28.07
2018-11-26T03:19:41.925Z,26.70
2018-11-26T03:22:10.101Z,28.37
2018-11-26T03:24:38.277Z,27.60
2018-11-26T03:27:06.684Z,28.67
2018-11-26T03:29:35.043Z,27.57
2018-11-26T03:32:03.236Z,29.33
2018-11-26T03:34:31.406Z,28.03
2018-11-26T03:36:59.599Z,28.83
2018-11-26T03:39:27.753Z,27.67
2018-11-26T03:41:55.929Z,27.63
2018-11-26T03:44:24.127Z,28.77
2018-11-26T03:46:52.307Z,27.67
2018-11-26T03:49:20.479Z,28.43
2018-11-26T03:51:48.630Z,30.77
2018-11-26T03:54:16.821Z,28.13
2018-11-26T03:56:45.024Z,28.67
2018-11-26T03:59:13.185Z,27.53
2018-11-26T04:01:41.422Z,27.63
2018-11-26T04:04:09.593Z,28.00
2018-11-26T04:06:37.810Z,30.17
2018-11-26T04:09:07.688Z,28.97
2018-11-26T04:11:36.255Z,30.50
2018-11-26T04:14:04.432Z,30.37
2018-11-26T04:16:32.616Z,28.43
2018-11-26T04:19:00.794Z,29.80
2018-11-26T04:21:28.968Z,27.10
2018-11-26T04:23:57.151Z,28.83
2018-11-26T04:26:25.326Z,29.10
2018-11-26T04:28:53.513Z,28.90
2018-11-26T04:31:21.684Z,28.37
2018-11-26T04:33:49.865Z,29.07
2018-11-26T04:36:18.036Z,27.90
2018-11-26T04:38:46.231Z,27.90
2018-11-26T04:41:14.432Z,30.33
2018-11-26T04:43:42.605Z,29.63
2018-11-26T04:46:10.790Z,28.67
2018-11-26T04:48:39.022Z,28.27
2018-11-26T04:51:07.277Z,27.43
2018-11-26T04:53:35.396Z,34.03
2018-11-26T04:56:03.571Z,30.23
2018-11-26T04:58:31.752Z,30.60
2018-11-26T05:00:59.947Z,29.83
2018-11-26T05:03:28.153Z,31.77
2018-11-26T05:05:56.367Z,29.63
2018-11-26T05:08:24.532Z,31.80
2018-11-26T05:10:52.727Z,29.80
2018-11-26T05:13:20.915Z,30.27
2018-11-26T05:15:49.159Z,31.47
2018-11-26T05:18:17.349Z,34.43
2018-11-26T05:20:45.760Z,28.37
2018-11-26T05:23:13.963Z,29.93
2018-11-26T05:25:42.135Z,30.93
2018-11-26T05:28:10.338Z,31.30
2018-11-26T05:30:38.502Z,31.23
2018-11-26T05:33:07.262Z,28.20
2018-11-26T05:35:35.551Z,29.90
2018-11-26T05:38:03.755Z,34.80
2018-11-26T05:40:31.911Z,29.27
2018-11-26T05:43:00.133Z,29.60
2018-11-26T05:45:28.319Z,29.50
2018-11-26T05:47:56.526Z,32.63
2018-11-26T05:50:24.732Z,30.30
2018-11-26T05:52:52.951Z,31.30
2018-11-26T05:55:21.385Z,31.60
2018-11-26T05:57:49.507Z,32.53
2018-11-26T06:00:27.264Z,29.40
2018-11-26T06:02:55.479Z,31.00
2018-11-26T06:05:23.657Z,32.57
2018-11-26T06:07:51.827Z,32.40
2018-11-26T06:10:20.020Z,31.43
2018-11-26T06:12:48.228Z,30.77
2018-11-26T06:15:16.421Z,29.17
2018-11-26T06:17:44.617Z,30.87
2018-11-26T06:20:13.411Z,29.77
2018-11-26T06:22:43.087Z,33.47
2018-11-26T06:25:13.868Z,30.80
2018-11-26T06:27:48.600Z,32.50
2018-11-26T06:30:18.010Z,30.87
2018-11-26T06:32:46.169Z,31.77
2018-11-26T06:35:16.468Z,32.23
2018-11-26T06:37:44.665Z,33.77
2018-11-26T06:40:13.448Z,32.37
2018-11-26T06:42:41.661Z,34.77
2018-11-26T06:45:13.296Z,33.17
2018-11-26T06:47:42.093Z,31.60
2018-11-26T06:50:11.912Z,31.70
2018-11-26T06:52:40.182Z,33.27
2018-11-26T06:55:10.283Z,32.40
2018-11-26T06:57:38.513Z,32.73
2018-11-26T07:00:10.153Z,33.00
2018-11-26T07:02:38.444Z,33.67
2018-11-26T07:05:12.173Z,32.60
2018-11-26T07:07:40.367Z,32.83
2018-11-26T07:10:09.581Z,31.17
2018-11-26T07:12:37.820Z,33.63
2018-11-26T07:15:08.404Z,32.47
2018-11-26T07:17:36.595Z,29.43
2018-11-26T07:20:07.180Z,33.80
2018-11-26T07:22:35.356Z,32.53
2018-11-26T07:25:03.588Z,30.63
2018-11-26T07:27:31.765Z,32.73
2018-11-26T07:29:59.964Z,34.00
2018-11-26T07:32:28.140Z,33.60
2018-11-26T07:34:56.339Z,33.00
2018-11-26T07:37:24.508Z,31.27
2018-11-26T07:39:52.691Z,30.80
2018-11-26T07:42:20.882Z,33.40
2018-11-26T07:44:49.091Z,30.53
2018-11-26T07:47:17.353Z,31.47
2018-11-26T07:49:45.516Z,33.60
2018-11-26T07:52:13.732Z,31.73
2018-11-26T07:54:41.932Z,35.93
2018-11-26T07:57:10.134Z,33.77
2018-11-26T07:59:38.316Z,34.83
2018-11-26T08:02:06.536Z,34.30
2018-11-26T08:04:34.725Z,42.93
2018-11-26T08:07:02.925Z,34.13
2018-11-26T08:09:31.147Z,34.83
2018-11-26T08:11:59.345Z,35.23
2018-11-26T08:14:27.535Z,36.77
2018-11-26T08:16:55.712Z,34.17
2018-11-26T08:19:23.883Z,36.80
2018-11-26T08:21:52.059Z,37.40
2018-11-26T08:24:20.246Z,36.13
2018-11-26T08:26:48.427Z,35.10
2018-11-26T08:29:16.624Z,36.93
2018-11-26T08:31:44.805Z,34.60
2018-11-26T08:34:13.037Z,36.13
2018-11-26T08:36:43.213Z,36.37
2018-11-26T08:39:16.599Z,39.50
2018-11-26T08:41:50.166Z,35.97
2018-11-26T08:46:25.461Z,38.17
2018-11-26T08:48:58.915Z,37.77
2018-11-26T08:51:27.184Z,39.37
2018-11-26T08:53:55.345Z,40.13
2018-11-26T08:56:23.637Z,37.60
2018-11-26T08:58:51.830Z,39.03
2018-11-26T09:01:24.229Z,37.60
2018-11-26T09:03:56.388Z,37.00
2018-11-26T09:06:24.695Z,39.93
2018-11-26T09:08:52.875Z,36.83
2018-11-26T09:11:21.109Z,39.40
2018-11-26T09:13:49.327Z,35.87
2018-11-26T09:16:17.552Z,36.83
2018-11-26T09:18:45.773Z,40.93
2018-11-26T09:21:13.999Z,38.80
2018-11-26T09:23:42.176Z,39.63
2018-11-26T09:26:10.372Z,39.30
2018-11-26T09:28:38.559Z,37.23
2018-11-26T09:31:06.777Z,37.80
2018-11-26T09:33:35.008Z,39.20
2018-11-26T09:36:03.225Z,36.80
2018-11-26T09:38:31.412Z,36.33
2018-11-26T09:40:59.589Z,35.33
2018-11-26T09:43:27.816Z,37.93
2018-11-26T09:45:55.988Z,37.17
2018-11-26T09:48:24.195Z,35.07
2018-11-26T09:50:52.400Z,36.97
2018-11-26T09:53:20.579Z,34.43
2018-11-26T09:55:48.848Z,32.13
2018-11-26T09:58:17.073Z,33.87
2018-11-26T10:00:45.265Z,35.60
2018-11-26T10:03:13.467Z,34.20
2018-11-26T10:05:41.681Z,35.83
2018-11-26T10:08:09.828Z,34.93
2018-11-26T10:10:38.002Z,35.00
2018-11-26T10:13:07.027Z,32.30
2018-11-26T10:15:35.191Z,36.37
2018-11-26T10:18:03.369Z,32.30
2018-11-26T10:20:31.543Z,31.73
2018-11-26T10:22:59.703Z,33.43
2018-11-26T10:25:27.879Z,33.43
2018-11-26T10:27:56.057Z,32.23
2018-11-26T10:30:24.722Z,35.17
2018-11-26T10:32:53.511Z,32.33
2018-11-26T10:35:22.079Z,34.60
2018-11-26T10:37:50.239Z,33.10
2018-11-26T10:40:26.217Z,30.77
2018-11-26T10:42:54.502Z,30.77
2018-11-26T10:45:23.723Z,32.30
2018-11-26T10:47:51.974Z,32.10
2018-11-26T10:50:21.836Z,30.50
2018-11-26T10:52:51.353Z,33.73
2018-11-26T10:55:20.861Z,30.87
2018-11-26T10:57:49.031Z,33.10
2018-11-26T11:00:22.701Z,33.33
2018-11-26T11:02:51.464Z,30.50
2018-11-26T11:05:19.693Z,32.47
2018-11-26T11:07:47.932Z,34.10
2018-11-26T11:10:17.621Z,31.73
2018-11-26T11:12:45.845Z,32.43
2018-11-26T11:15:14.176Z,31.70
2018-11-26T11:17:42.426Z,35.57
2018-11-26T11:20:15.687Z,34.77
2018-11-26T11:22:43.948Z,36.80
2018-11-26T11:25:13.132Z,37.40
2018-11-26T11:27:41.472Z,36.93
2018-11-26T11:30:14.985Z,36.93
2018-11-26T11:32:43.231Z,33.60
2018-11-26T11:35:13.176Z,33.10
2018-11-26T11:37:42.019Z,35.00
2018-11-26T11:40:23.089Z,38.83
2018-11-26T11:42:51.273Z,39.33
2018-11-26T11:45:19.706Z,35.57
2018-11-26T11:47:47.953Z,38.50
2018-11-26T11:50:18.425Z,37.10
2018-11-26T11:52:46.802Z,38.00
2018-11-26T11:55:16.035Z,38.33
2018-11-26T11:57:44.233Z,38.70
2018-11-26T12:00:22.268Z,37.83
2018-11-26T12:02:50.512Z,38.70
2018-11-26T12:05:18.680Z,39.40
2018-11-26T12:07:46.851Z,35.70
2018-11-26T12:10:15.026Z,40.30
2018-11-26T12:12:43.189Z,39.93
2018-11-26T12:15:15.625Z,42.50
2018-11-26T12:17:44.452Z,42.40
2018-11-26T12:20:13.539Z,39.33
2018-11-26T12:22:42.073Z,37.93
2018-11-26T12:25:17.313Z,38.57
2018-11-26T12:27:45.508Z,36.87
2018-11-26T12:30:15.781Z,41.80
2018-11-26T12:32:43.977Z,38.13
2018-11-26T12:35:12.173Z,43.27
2018-11-26T12:37:40.342Z,41.73
2018-11-26T12:40:16.403Z,41.20
2018-11-26T12:42:44.582Z,40.07
2018-11-26T12:45:17.438Z,38.30
2018-11-26T12:47:45.688Z,40.83
2018-11-26T12:50:13.870Z,41.83
2018-11-26T12:52:43.214Z,43.00
2018-11-26T12:55:13.697Z,41.10
2018-11-26T12:57:42.785Z,45.50
2018-11-26T13:00:16.110Z,41.27
2018-11-26T13:02:45.168Z,44.77
2018-11-26T13:05:15.614Z,43.63
2018-11-26T13:07:43.801Z,46.83
2018-11-26T13:10:13.894Z,42.07
2018-11-26T13:12:42.173Z,39.60
2018-11-26T13:15:14.269Z,42.83
2018-11-26T13:17:42.476Z,40.30
2018-11-26T13:20:14.386Z,40.90
2018-11-26T13:22:42.625Z,43.67
2018-11-26T13:25:11.941Z,40.70
2018-11-26T13:27:41.636Z,42.20
2018-11-26T13:30:14.840Z,39.53
2018-11-26T13:32:44.054Z,38.37
2018-11-26T13:35:13.357Z,45.50
2018-11-26T13:37:41.534Z,39.23
2018-11-26T13:40:11.916Z,40.50
2018-11-26T13:42:40.393Z,40.23
2018-11-26T13:45:11.164Z,44.70
2018-11-26T13:47:39.641Z,40.07
2018-11-26T13:50:13.460Z,40.73
2018-11-26T13:52:41.705Z,40.10
2018-11-26T13:55:11.708Z,34.97
2018-11-26T13:57:39.889Z,36.57
2018-11-26T14:00:10.000Z,40.17
2018-11-26T14:02:38.303Z,36.80
2018-11-26T14:05:08.271Z,39.27
2018-11-26T14:07:36.521Z,37.10
2018-11-26T14:10:07.138Z,41.00
2018-11-26T14:12:35.309Z,41.47
2018-11-26T14:15:03.549Z,37.60
2018-11-26T14:17:31.811Z,43.70
2018-11-26T14:19:59.969Z,37.83
2018-11-26T14:22:28.271Z,39.80
2018-11-26T14:24:56.470Z,43.07
2018-11-26T14:27:24.769Z,38.30
2018-11-26T14:29:52.981Z,41.20
2018-11-26T14:32:21.507Z,38.13
2018-11-26T14:34:49.681Z,40.87
2018-11-26T14:37:17.860Z,42.67
2018-11-26T14:39:46.161Z,42.90
2018-11-26T14:42:14.346Z,43.63
2018-11-26T14:44:42.522Z,44.67
2018-11-26T14:47:11.697Z,42.13
2018-11-26T14:49:39.881Z,46.07
2018-11-26T14:52:08.069Z,46.83
2018-11-26T14:54:36.278Z,48.37
2018-11-26T14:57:04.631Z,49.00
2018-11-26T14:59:32.805Z,47.10
2018-11-26T15:02:01.768Z,44.33
2018-11-26T15:04:29.932Z,47.93
2018-11-26T15:06:58.122Z,47.93
2018-11-26T15:09:26.276Z,43.50
2018-11-26T15:11:54.470Z,53.07
2018-11-26T15:14:22.700Z,45.57
2018-11-26T15:16:50.899Z,52.80
2018-11-26T15:19:19.060Z,60.57
2018-11-26T15:21:47.236Z,48.10
2018-11-26T15:24:15.390Z,54.20
2018-11-26T15:26:43.545Z,50.17
2018-11-26T15:29:11.699Z,50.20
2018-11-26T15:31:39.888Z,51.50
2018-11-26T15:34:08.092Z,53.17
2018-11-26T15:36:36.243Z,57.43
2018-11-26T15:39:06.846Z,51.03
2018-11-26T15:41:35.017Z,52.13
2018-11-26T15:44:03.206Z,58.07
2018-11-26T15:46:31.389Z,51.00
2018-11-26T15:48:59.568Z,62.17
2018-11-26T15:51:27.774Z,56.80
2018-11-26T15:53:55.965Z,54.93
2018-11-26T15:56:24.166Z,52.40
2018-11-26T15:58:52.334Z,52.50
2018-11-26T16:01:20.489Z,55.57
2018-11-26T16:03:48.648Z,54.43
2018-11-26T16:06:16.861Z,59.33
2018-11-26T16:08:45.055Z,53.90
2018-11-26T16:11:13.316Z,56.00
2018-11-26T16:13:41.494Z,59.70
2018-11-26T16:16:09.670Z,52.67
2018-11-26T16:18:37.833Z,57.77
2018-11-26T16:21:05.998Z,56.93
2018-11-26T16:23:34.151Z,61.30
2018-11-26T16:26:02.313Z,60.00
2018-11-26T16:28:30.622Z,60.00
2018-11-26T16:30:58.793Z,52.93
2018-11-26T16:33:26.964Z,56.47
2018-11-26T16:35:55.145Z,53.37
2018-11-26T16:38:23.338Z,53.17
2018-11-26T16:40:52.559Z,58.77
2018-11-26T16:43:19.677Z,56.90
2018-11-26T16:45:47.845Z,56.80
2018-11-26T16:48:16.022Z,57.93
2018-11-26T16:50:44.204Z,54.63
2018-11-26T16:53:12.390Z,58.30
2018-11-26T16:55:40.574Z,56.13
2018-11-26T16:58:08.753Z,64.33
2018-11-26T17:00:36.937Z,63.63
2018-11-26T17:03:05.295Z,63.53
2018-11-26T17:05:35.082Z,68.70
2018-11-26T17:08:03.722Z,69.70
2018-11-26T17:10:31.989Z,68.17
2018-11-26T17:13:00.214Z,68.23
2018-11-26T17:15:28.432Z,63.97
2018-11-26T17:17:56.608Z,59.67
2018-11-26T17:20:24.786Z,65.57
2018-11-26T17:22:53.089Z,72.30
2018-11-26T17:25:21.329Z,62.90
2018-11-26T17:27:49.973Z,66.10
2018-11-26T17:30:19.443Z,71.93
2018-11-26T17:32:50.146Z,62.67
2018-11-26T17:35:18.503Z,67.97
2018-11-26T17:37:46.872Z,64.80
2018-11-26T17:40:17.213Z,71.13
2018-11-26T17:42:45.494Z,66.73
2018-11-26T17:45:14.645Z,67.13
2018-11-26T17:47:46.038Z,71.17
2018-11-26T17:50:16.678Z,67.60
2018-11-26T17:52:44.857Z,68.70
2018-11-26T17:55:13.132Z,75.73
2018-11-26T17:57:41.432Z,64.17
2018-11-26T18:00:11.407Z,67.77
2018-11-26T18:02:39.627Z,62.90
2018-11-26T18:05:11.347Z,71.70
2018-11-26T18:07:39.622Z,80.67
2018-11-26T18:10:10.544Z,66.17
2018-11-26T18:12:38.728Z,61.57
2018-11-26T18:15:10.212Z,66.03
2018-11-26T18:17:38.416Z,74.33
2018-11-26T18:20:10.422Z,68.17
2018-11-26T18:22:38.594Z,69.23
2018-11-26T18:25:08.389Z,66.20
2018-11-26T18:27:36.977Z,67.63
2018-11-26T18:30:12.152Z,66.00
2018-11-26T18:32:40.346Z,69.37
2018-11-26T18:35:08.764Z,72.70
2018-11-26T18:37:36.959Z,63.90
2018-11-26T18:40:07.177Z,70.20
2018-11-26T18:42:35.338Z,68.70
2018-11-26T18:45:03.570Z,69.70
2018-11-26T18:47:31.749Z,60.90
2018-11-26T18:49:59.941Z,67.80
2018-11-26T18:52:28.104Z,72.73
2018-11-26T18:54:56.285Z,73.33
2018-11-26T18:57:24.575Z,69.57
2018-11-26T18:59:53.133Z,70.40
2018-11-26T19:02:21.947Z,68.83
2018-11-26T19:04:50.268Z,74.10
2018-11-26T19:07:18.756Z,69.70
2018-11-26T19:09:47.160Z,64.87
2018-11-26T19:12:15.562Z,66.57
2018-11-26T19:14:45.715Z,68.40
2018-11-26T19:17:14.339Z,67.50
2018-11-26T19:19:42.715Z,73.23
2018-11-26T19:22:11.155Z,67.00
2018-11-26T19:24:39.663Z,75.00
2018-11-26T19:27:08.496Z,64.67
2018-11-26T19:29:36.846Z,70.53
2018-11-26T19:32:06.046Z,73.30
2018-11-26T19:34:34.360Z,66.07
2018-11-26T19:37:02.851Z,73.53
2018-11-26T19:39:31.420Z,63.10
2018-11-26T19:41:59.848Z,64.10
2018-11-26T19:44:28.244Z,65.67
2018-11-26T19:46:56.909Z,66.50
2018-11-26T19:49:25.328Z,70.33
2018-11-26T19:51:54.089Z,68.70
2018-11-26T19:54:22.699Z,63.10
2018-11-26T19:56:51.250Z,61.60
2018-11-26T19:59:19.673Z,62.07
2018-11-26T20:01:48.024Z,70.67
2018-11-26T20:04:26.282Z,67.93
2018-11-26T20:06:54.650Z,70.60
2018-11-26T20:09:22.998Z,75.70
2018-11-26T20:11:51.356Z,66.90
2018-11-26T20:14:25.596Z,66.97
2018-11-26T20:16:48.967Z,70.17
2018-11-26T20:19:17.473Z,69.60
2018-11-26T20:21:45.673Z,75.93
2018-11-26T20:24:14.059Z,67.77
2018-11-26T20:26:42.388Z,65.53
2018-11-26T20:29:10.577Z,70.40
2018-11-26T20:31:38.935Z,69.07
2018-11-26T20:34:07.390Z,71.73
2018-11-26T20:36:35.788Z,67.63
2018-11-26T20:39:05.508Z,71.80
2018-11-26T20:41:33.873Z,66.93
2018-11-26T20:44:02.150Z,66.00
2018-11-26T20:46:30.368Z,67.97
2018-11-26T20:48:58.640Z,64.73
2018-11-26T20:51:27.053Z,61.23
2018-11-26T20:53:55.369Z,69.53
2018-11-26T20:56:23.683Z,68.17
2018-11-26T20:58:51.974Z,74.57
2018-11-26T21:01:20.174Z,62.97
2018-11-26T21:03:48.432Z,66.30
2018-11-26T21:06:16.854Z,71.03
2018-11-26T21:08:45.334Z,64.33
2018-11-26T21:11:14.948Z,68.13
2018-11-26T21:13:43.289Z,63.93
2018-11-26T21:16:12.291Z,65.93
2018-11-26T21:18:40.642Z,67.43
2018-11-26T21:21:08.937Z,67.40
2018-11-26T21:23:37.228Z,62.43
2018-11-26T21:26:07.705Z,62.23
2018-11-26T21:28:36.001Z,63.87
2018-11-26T21:31:04.235Z,65.60
2018-11-26T21:33:32.506Z,62.50
2018-11-26T21:36:00.696Z,60.93
2018-11-26T21:38:28.941Z,66.63
2018-11-26T21:40:57.154Z,62.27
2018-11-26T21:43:25.346Z,62.10
2018-11-26T21:45:56.294Z,62.10
2018-11-26T21:48:24.501Z,69.23
2018-11-26T21:50:52.698Z,61.50
2018-11-26T21:53:20.874Z,60.37
2018-11-26T21:55:49.101Z,67.23
2018-11-26T21:58:17.307Z,68.00
2018-11-26T22:00:46.064Z,61.33
2018-11-26T22:03:14.894Z,63.40
2018-11-26T22:05:43.905Z,56.00
2018-11-26T22:08:12.567Z,60.73
2018-11-26T22:10:41.922Z,62.63
2018-11-26T22:13:12.269Z,56.43
2018-11-26T22:15:40.484Z,56.93
2018-11-26T22:18:09.101Z,59.57
2018-11-26T22:20:37.305Z,63.23
2018-11-26T22:23:06.210Z,56.70
2018-11-26T22:25:34.450Z,63.10
2018-11-26T22:28:03.173Z,62.17
2018-11-26T22:30:32.684Z,58.00
2018-11-26T22:33:00.938Z,60.50
2018-11-26T22:35:29.129Z,58.87
2018-11-26T22:37:57.310Z,61.93
2018-11-26T22:40:26.420Z,68.70
2018-11-26T22:42:54.657Z,63.00
2018-11-26T22:45:23.962Z,61.63
2018-11-26T22:47:55.500Z,58.37
2018-11-26T22:50:23.706Z,59.30
2018-11-26T22:52:51.905Z,62.53
2018-11-26T22:55:20.063Z,58.87
2018-11-26T22:57:48.284Z,56.20
2018-11-26T23:00:26.630Z,61.20
2018-11-26T23:02:56.953Z,53.23
2018-11-26T23:05:25.126Z,65.87
2018-11-26T23:07:53.317Z,65.77
2018-11-26T23:10:21.548Z,58.27
2018-11-26T23:12:49.739Z,59.07
2018-11-26T23:15:18.317Z,62.77
2018-11-26T23:17:47.081Z,59.00
2018-11-26T23:20:19.142Z,63.27
2018-11-26T23:22:47.352Z,53.93
2018-11-26T23:25:16.521Z,56.43
2018-11-26T23:27:44.772Z,56.73
2018-11-26T23:30:17.924Z,61.17
2018-11-26T23:32:47.435Z,58.30
2018-11-26T23:35:15.645Z,59.93
2018-11-26T23:37:43.843Z,59.33
2018-11-26T23:40:12.778Z,60.50
2018-11-26T23:42:40.994Z,62.27
2018-11-26T23:45:13.665Z,54.67
2018-11-26T23:47:41.861Z,63.03
2018-11-26T23:50:11.084Z,55.97
2018-11-26T23:52:39.785Z,65.10
2018-11-26T23:55:09.295Z,62.57
2018-11-26T23:57:37.456Z,58.90
